Time;durP1;ratioP1;P1;durP2;ratioP2;P2;SDS_P1;SDS_P2;PMS_P1;PMS_P2;Temp;Humidity;BMP_temperature;BMP_pressure;BME280_temperature;BME280_humidity;BME280_pressure;Samples;Min_cycle;Max_cycle;Signal;HPM_P1;HPM_P2
2023/10/01 00:00:01;;;;;;;12.78;7.17;;;;;;;22.69;59.06;101796.74;2297847;76;50163;-77
2023/10/01 00:03:06;;;;;;;15.20;7.53;;;;;;;22.68;59.11;101789.65;2297433;76;50535;-76
2023/10/01 00:06:08;;;;;;;12.03;6.97;;;;;;;22.67;59.10;101785.28;2273477;76;51708;-74
2023/10/01 00:09:10;;;;;;;18.67;7.60;;;;;;;22.69;59.51;101783.77;2297404;76;51370;-75
2023/10/01 00:12:12;;;;;;;18.45;7.28;;;;;;;22.68;59.49;101778.86;2331735;76;51445;-74
2023/10/01 00:15:20;;;;;;;16.17;7.05;;;;;;;22.68;59.43;101773.45;2298391;76;50101;-76
2023/10/01 00:18:25;;;;;;;14.75;7.15;;;;;;;22.68;59.60;101773.45;2324141;76;51474;-76
2023/10/01 00:21:28;;;;;;;18.52;7.33;;;;;;;22.68;59.69;101777.51;2332555;76;22268;-74
2023/10/01 00:24:30;;;;;;;16.77;6.95;;;;;;;22.71;59.79;101778.52;2298054;76;50076;-75
2023/10/01 00:27:32;;;;;;;14.63;7.40;;;;;;;22.69;59.88;101771.11;2254203;77;50218;-74
2023/10/01 00:30:36;;;;;;;15.68;7.30;;;;;;;22.67;60.02;101776.36;2271679;77;51680;-76
2023/10/01 00:33:38;;;;;;;17.15;7.85;;;;;;;22.67;59.93;101774.50;2296462;77;51478;-76
2023/10/01 00:36:41;;;;;;;20.60;6.95;;;;;;;22.68;60.07;101782.07;2292916;77;51453;-77
2023/10/01 00:39:44;;;;;;;19.45;7.28;;;;;;;22.67;60.11;101771.80;2271773;77;50947;-75
2023/10/01 00:42:46;;;;;;;14.65;6.67;;;;;;;22.66;60.36;101767.44;2297121;77;52096;-76
2023/10/01 00:45:49;;;;;;;17.17;7.03;;;;;;;22.66;60.37;101761.17;2292773;77;50636;-75
2023/10/01 00:48:52;;;;;;;15.35;7.00;;;;;;;22.65;60.35;101767.09;2292518;77;50328;-75
2023/10/01 00:51:55;;;;;;;18.52;7.12;;;;;;;22.65;60.51;101760.34;2298612;77;51407;-75
2023/10/01 00:54:57;;;;;;;17.17;7.00;;;;;;;22.66;60.55;101753.08;2315691;76;50576;-75
2023/10/01 00:57:59;;;;;;;18.52;7.33;;;;;;;22.64;60.62;101747.89;2330724;76;52335;-76
2023/10/01 01:01:04;;;;;;;16.97;7.22;;;;;;;22.64;60.74;101751.10;2348731;75;51380;-76
2023/10/01 01:04:17;;;;;;;13.35;6.60;;;;;;;22.64;60.71;101755.98;2342234;75;21719;-76
2023/10/01 01:07:19;;;;;;;21.87;7.95;;;;;;;22.63;60.91;101762.37;2341452;75;22799;-76
2023/10/01 01:10:20;;;;;;;21.15;7.50;;;;;;;22.64;60.82;101760.03;2348811;75;22255;-76
2023/10/01 01:13:24;;;;;;;16.00;6.80;;;;;;;22.64;60.87;101760.03;2321613;76;50364;-76
2023/10/01 01:16:28;;;;;;;19.32;6.58;;;;;;;22.65;60.74;101752.25;2341697;76;50709;-75
2023/10/01 01:19:30;;;;;;;16.05;6.80;;;;;;;22.66;60.70;101744.50;2321826;76;50994;-75
2023/10/01 01:22:33;;;;;;;23.87;7.25;;;;;;;22.67;60.65;101735.89;2348403;75;51470;-74
2023/10/01 01:25:36;;;;;;;14.80;6.80;;;;;;;22.66;60.63;101729.66;2320889;75;50615;-75
2023/10/01 01:28:39;;;;;;;14.78;6.62;;;;;;;22.67;60.64;101727.28;2274269;77;51365;-75
2023/10/01 01:31:45;;;;;;;15.80;6.83;;;;;;;22.67;60.62;101734.02;2302391;77;52344;-75
2023/10/01 01:34:46;;;;;;;18.15;7.08;;;;;;;22.66;60.73;101735.06;2302353;77;22401;-75
2023/10/01 01:37:48;;;;;;;14.90;6.42;;;;;;;22.68;60.64;101732.16;2283226;77;50263;-75
2023/10/01 01:40:55;;;;;;;18.40;6.37;;;;;;;22.66;60.78;101732.36;2308952;77;50303;-74
2023/10/01 01:43:54;;;;;;;12.70;6.12;;;;;;;22.66;60.83;101736.89;2307250;77;22347;-75
2023/10/01 01:47:00;;;;;;;14.25;6.58;;;;;;;22.66;60.73;101726.10;2283153;77;50130;-75
2023/10/01 01:50:10;;;;;;;10.38;5.95;;;;;;;22.65;60.84;101737.41;2283357;77;22887;-75
2023/10/01 01:53:05;;;;;;;10.98;6.12;;;;;;;22.66;60.56;101728.31;2293814;77;22395;-75
2023/10/01 01:56:11;;;;;;;17.23;6.55;;;;;;;22.65;60.81;101729.31;2313501;76;50562;-75
2023/10/01 01:59:16;;;;;;;15.93;6.58;;;;;;;22.65;60.69;101724.44;2270185;77;51677;-75
2023/10/01 02:02:19;;;;;;;14.30;6.50;;;;;;;22.65;60.71;101717.70;2298869;76;50136;-75
2023/10/01 02:05:28;;;;;;;14.23;5.87;;;;;;;22.66;60.80;101711.27;2273401;77;51485;-75
2023/10/01 02:08:47;;;;;;;14.63;6.37;;;;;;;22.64;60.82;101707.94;2294529;77;22383;-75
2023/10/01 02:11:40;;;;;;;12.50;5.47;;;;;;;22.63;60.81;101720.56;2293213;76;22466;-75
2023/10/01 02:14:43;;;;;;;11.65;6.22;;;;;;;22.63;60.89;101721.91;2272784;77;51515;-75
2023/10/01 02:17:45;;;;;;;15.00;6.20;;;;;;;22.64;60.88;101724.13;2273410;77;50087;-75
2023/10/01 02:20:56;;;;;;;13.55;6.35;;;;;;;22.65;60.84;101717.17;2294815;77;51463;-76
2023/10/01 02:23:58;;;;;;;15.35;6.22;;;;;;;22.64;60.97;101714.16;2294820;77;22358;-75
2023/10/01 02:27:00;;;;;;;11.57;5.47;;;;;;;22.63;61.06;101711.64;2293866;76;50623;-75
2023/10/01 02:30:13;;;;;;;11.43;6.03;;;;;;;22.64;60.90;101714.69;2311701;76;51491;-75
2023/10/01 02:33:24;;;;;;;9.63;5.37;;;;;;;22.64;60.91;101706.59;2311393;76;52421;-76
2023/10/01 02:36:23;;;;;;;11.88;5.80;;;;;;;22.63;61.03;101711.13;2333014;76;22215;-75
2023/10/01 02:39:28;;;;;;;9.85;5.50;;;;;;;22.61;61.14;101706.45;2333773;76;51587;-75
2023/10/01 02:42:31;;;;;;;11.68;5.65;;;;;;;22.61;61.10;101701.05;2312078;75;50400;-75
2023/10/01 02:45:35;;;;;;;13.38;6.28;;;;;;;22.61;61.18;101701.88;2338076;75;51526;-76
2023/10/01 02:48:40;;;;;;;15.03;5.85;;;;;;;22.63;61.11;101694.10;2312030;76;50296;-76
2023/10/01 02:51:41;;;;;;;13.32;5.60;;;;;;;22.61;61.12;101685.70;2336704;75;22337;-75
2023/10/01 02:54:44;;;;;;;11.97;5.55;;;;;;;22.61;61.30;101682.17;2313759;76;52244;-75
2023/10/01 02:57:50;;;;;;;11.10;5.62;;;;;;;22.60;61.34;101684.00;2322006;76;52331;-75
2023/10/01 03:00:53;;;;;;;9.33;5.55;;;;;;;22.60;61.36;101677.26;2348412;75;22321;-75
2023/10/01 03:03:54;;;;;;;10.65;5.42;;;;;;;22.61;61.27;101677.61;2322234;76;22345;-75
2023/10/01 03:06:57;;;;;;;12.50;5.37;;;;;;;22.61;61.29;101689.75;2296863;76;50984;-75
2023/10/01 03:10:00;;;;;;;13.60;5.33;;;;;;;22.60;61.14;101694.80;2342123;76;50750;-74
2023/10/01 03:13:14;;;;;;;9.70;5.50;;;;;;;22.63;61.28;101691.41;2321724;76;50011;-75
2023/10/01 03:19:27;;;;;;;12.03;5.25;;;;;;;22.61;61.20;101684.87;2325255;76;22364;-75
2023/10/01 03:22:31;;;;;;;10.25;5.42;;;;;;;22.60;61.21;101689.91;2295722;76;51121;-75
2023/10/01 03:25:55;;;;;;;9.88;5.15;;;;;;;22.61;61.18;101692.95;2321316;75;22351;-75
2023/10/01 03:35:27;;;;;;;11.18;5.55;;;;;;;22.59;61.27;101692.30;2325144;76;22452;-75
2023/10/01 03:38:32;;;;;;;8.85;4.70;;;;;;;22.60;61.23;101699.36;2321944;76;50270;-75
2023/10/01 03:41:52;;;;;;;11.05;5.05;;;;;;;22.59;61.29;101692.30;2322312;76;22351;-75
2023/10/01 03:47:59;;;;;;;10.43;5.10;;;;;;;22.58;61.36;101700.05;2342125;76;22284;-75
2023/10/01 03:51:03;;;;;;;12.95;5.03;;;;;;;22.58;61.29;101697.34;2321706;76;50243;-75
2023/10/01 03:54:06;;;;;;;8.60;4.70;;;;;;;22.60;61.26;101710.15;2311502;76;52524;-75
2023/10/01 03:57:11;;;;;;;8.90;4.75;;;;;;;22.59;61.23;101697.70;2304912;76;49770;-75
2023/10/01 04:00:29;;;;;;;11.80;5.05;;;;;;;22.58;61.21;101697.34;2311696;76;22405;-75
2023/10/01 04:03:17;;;;;;;7.70;4.67;;;;;;;22.59;61.13;101685.55;2334819;75;22176;-75
2023/10/01 04:06:21;;;;;;;9.10;4.65;;;;;;;22.59;61.17;101693.65;2312729;76;51475;-75
2023/10/01 04:09:26;;;;;;;9.08;4.92;;;;;;;22.59;61.08;101695.00;2312671;76;51686;-75
2023/10/01 04:12:33;;;;;;;11.60;4.80;;;;;;;22.57;61.28;101690.29;2312894;76;22399;-75
2023/10/01 04:15:40;;;;;;;8.18;4.70;;;;;;;22.57;61.35;101688.94;2334601;76;23135;-75
2023/10/01 04:18:42;;;;;;;9.53;5.15;;;;;;;22.58;61.37;101683.38;2311230;76;23207;-76
2023/10/01 04:21:43;;;;;;;7.53;4.45;;;;;;;22.57;61.25;101673.59;2311632;76;22405;-76
2023/10/01 04:25:00;;;;;;;11.33;4.78;;;;;;;22.57;61.32;101674.11;2311467;76;51478;-76
2023/10/01 04:27:49;;;;;;;8.80;4.78;;;;;;;22.56;61.28;101672.44;2306954;76;22435;-75
2023/10/01 04:30:52;;;;;;;7.45;4.70;;;;;;;22.56;61.36;101675.14;2333343;76;50284;-75
2023/10/01 04:33:54;;;;;;;7.97;4.20;;;;;;;22.56;61.43;101675.14;2311136;76;50545;-74
2023/10/01 04:36:57;;;;;;;8.63;4.30;;;;;;;22.56;61.39;101680.53;2311505;76;50020;-74
2023/10/01 04:39:59;;;;;;;5.92;4.17;;;;;;;22.56;61.11;101673.80;2311536;76;50340;-74
2023/10/01 04:43:10;;;;;;;7.92;3.98;;;;;;;22.57;61.02;101682.20;2333140;76;50166;-74
2023/10/01 04:46:11;;;;;;;9.08;4.03;;;;;;;22.57;61.07;101684.37;2336245;76;22509;-75
2023/10/01 04:49:39;;;;;;;7.25;4.35;;;;;;;22.56;61.14;101683.23;2311899;76;49963;-75
2023/10/01 04:52:32;;;;;;;22.17;4.47;;;;;;;22.56;61.10;101689.97;2308403;76;22327;-74
2023/10/01 04:55:41;;;;;;;10.30;4.67;;;;;;;22.56;61.23;101685.93;2294754;76;50971;-75
2023/10/01 04:58:41;;;;;;;14.60;4.83;;;;;;;22.58;61.23;101692.81;2287534;76;22411;-76
2023/10/01 05:01:44;;;;;;;9.78;4.45;;;;;;;22.57;61.08;101692.47;2292786;76;50529;-75
2023/10/01 05:04:47;;;;;;;11.25;4.22;;;;;;;22.58;61.06;101686.56;2267414;76;52591;-75
2023/10/01 05:07:50;;;;;;;9.68;4.85;;;;;;;22.58;60.65;101689.26;2317232;76;51456;-76
2023/10/01 05:10:52;;;;;;;10.75;3.98;;;;;;;22.58;60.67;101690.60;2318859;76;50318;-76
2023/10/01 05:13:58;;;;;;;9.58;4.80;;;;;;;22.57;60.62;101693.82;2292375;76;51491;-75
2023/10/01 05:17:07;;;;;;;19.60;4.53;;;;;;;22.51;61.36;101686.99;2319181;76;23230;-76
2023/10/01 05:20:08;;;;;;;9.53;4.20;;;;;;;22.49;61.57;101688.52;2318073;76;22434;-76
2023/10/01 05:23:06;;;;;;;12.88;4.05;;;;;;;22.49;61.60;101698.47;2293069;76;22897;-76
2023/10/01 05:26:10;;;;;;;12.75;3.87;;;;;;;22.49;61.62;101695.77;2280442;76;51569;-76
2023/10/01 05:29:20;;;;;;;9.68;4.42;;;;;;;22.50;61.59;101708.23;2297535;76;52551;-76
2023/10/01 05:32:18;;;;;;;9.45;3.98;;;;;;;22.49;61.48;101699.30;2316504;76;22344;-76
2023/10/01 05:35:22;;;;;;;11.08;4.05;;;;;;;22.49;61.43;101694.42;2318925;76;50355;-76
2023/10/01 05:38:33;;;;;;;13.93;4.58;;;;;;;22.50;61.40;101698.27;2293205;76;52566;-75
2023/10/01 05:41:37;;;;;;;11.15;4.40;;;;;;;22.49;61.33;101687.68;2315704;76;22260;-75
2023/10/01 05:44:35;;;;;;;13.40;4.05;;;;;;;22.49;61.52;101704.70;2317434;76;22387;-76
2023/10/01 05:47:54;;;;;;;17.55;4.42;;;;;;;22.53;61.71;101702.45;2318530;76;51491;-75
2023/10/01 05:50:58;;;;;;;22.82;4.60;;;;;;;22.58;61.43;101703.61;2318010;76;51499;-75
2023/10/01 05:54:00;;;;;;;17.75;4.33;;;;;;;22.60;61.27;101707.45;2292604;76;22349;-75
2023/10/01 05:57:03;;;;;;;16.00;3.98;;;;;;;22.62;61.37;101708.11;2292553;76;51498;-76
2023/10/01 06:00:16;;;;;;;16.30;3.87;;;;;;;22.60;61.13;101710.15;2268227;78;50187;-73
2023/10/01 06:03:10;;;;;;;9.43;3.72;;;;;;;22.60;58.50;101693.96;2292440;77;28394;-72
2023/10/01 06:06:23;;;;;;;11.33;3.12;;;;;;;22.56;58.36;101683.23;2268331;77;50667;-73
2023/10/01 06:09:18;;;;;;;10.78;4.15;;;;;;;22.54;58.16;101677.18;2292546;77;22388;-73
2023/10/01 06:12:21;;;;;;;9.23;3.62;;;;;;;22.53;58.09;101680.87;2268133;78;50707;-73
2023/10/01 06:15:29;;;;;;;7.87;3.85;;;;;;;22.52;57.85;101675.17;2294403;77;51308;-74
2023/10/01 06:18:29;;;;;;;;;;;;;;;22.49;57.76;101675.03;2283590;77;22273;-73
2023/10/01 06:21:32;;;;;;;6.80;3.35;;;;;;;22.50;57.74;101678.55;2280720;78;50486;-73
2023/10/01 06:24:34;;;;;;;14.68;4.10;;;;;;;22.48;57.59;101677.41;2282701;76;51613;-75
2023/10/01 06:27:37;;;;;;;16.90;3.67;;;;;;;22.46;57.44;101678.61;2291102;76;49295;-75
2023/10/01 06:30:43;;;;;;;13.93;3.40;;;;;;;22.45;57.43;101674.22;2332745;76;51490;-75
2023/10/01 06:33:45;;;;;;;10.53;3.52;;;;;;;22.46;57.39;101675.92;2331990;76;50628;-75
2023/10/01 06:36:56;;;;;;;16.25;3.98;;;;;;;22.47;57.40;101680.28;2306370;76;51447;-75
2023/10/01 06:39:54;;;;;;;15.80;3.85;;;;;;;22.44;57.48;101687.39;2317839;76;22455;-76
2023/10/01 06:43:00;;;;;;;12.82;3.75;;;;;;;22.45;57.60;101683.14;2272117;76;51683;-76
2023/10/01 06:46:03;;;;;;;11.55;3.00;;;;;;;22.47;57.53;101682.45;2294459;76;51497;-76
2023/10/01 06:49:08;;;;;;;11.57;3.58;;;;;;;22.46;57.53;101682.66;2268913;78;50733;-75
2023/10/01 06:52:10;;;;;;;9.68;3.55;;;;;;;22.45;57.50;101689.05;2268710;76;22294;-74
2023/10/01 06:55:25;;;;;;;14.98;3.75;;;;;;;22.45;57.75;101678.27;2305924;76;51638;-75
2023/10/01 06:58:16;;;;;;;14.18;3.60;;;;;;;22.43;57.69;101678.95;2319738;76;22442;-74
2023/10/01 07:04:41;;;;;;;14.85;4.10;;;;;;;22.44;57.83;101683.34;2273786;76;24282;-75
2023/10/01 07:07:43;;;;;;;12.70;3.80;;;;;;;22.47;57.90;101686.50;2303336;76;22182;-74
2023/10/01 07:10:50;;;;;;;15.00;4.05;;;;;;;22.48;58.01;101685.98;2308815;76;51457;-73
2023/10/01 07:13:52;;;;;;;12.33;4.12;;;;;;;22.49;58.49;101689.03;2308787;76;22327;-74
2023/10/01 07:16:54;;;;;;;23.60;4.08;;;;;;;22.48;58.48;101689.55;2286482;76;22583;-74
2023/10/01 07:20:00;;;;;;;16.07;4.03;;;;;;;22.51;58.34;101691.04;2281992;77;51529;-74
2023/10/01 07:23:02;;;;;;;;;;;;;;;22.50;58.11;101691.52;2325874;76;51468;-75
2023/10/01 07:26:12;;;;;;;13.30;4.40;;;;;;;22.55;58.21;101702.60;2307611;76;50298;-74
2023/10/01 07:29:08;;;;;;;17.87;4.05;;;;;;;22.52;58.20;101695.40;2299645;76;22297;-75
2023/10/01 07:32:14;;;;;;;11.28;3.85;;;;;;;22.50;58.08;101710.92;2291341;77;51904;-75
2023/10/01 07:35:16;;;;;;;24.63;4.28;;;;;;;22.51;58.19;101703.17;2270787;77;50423;-75
2023/10/01 07:38:19;;;;;;;23.40;4.25;;;;;;;22.52;58.14;101702.14;2295834;76;51430;-75
2023/10/01 07:41:23;;;;;;;12.73;3.65;;;;;;;22.55;58.08;101711.20;2270023;77;51744;-73
2023/10/01 07:44:27;;;;;;;14.23;4.22;;;;;;;22.54;57.99;101702.80;2270390;76;51253;-74
2023/10/01 07:47:29;;;;;;;24.47;5.03;;;;;;;22.55;58.46;101712.56;2295788;77;50276;-75
2023/10/01 07:50:33;;;;;;;27.05;5.25;;;;;;;22.58;58.92;101720.27;2245243;76;51140;-75
2023/10/01 07:53:35;;;;;;;23.77;4.72;;;;;;;22.60;59.08;101714.19;2293672;76;51526;-76
2023/10/01 07:56:48;;;;;;;15.72;4.60;;;;;;;22.63;59.25;101713.82;2294796;75;51229;-74
2023/10/01 07:59:46;;;;;;;14.18;4.05;;;;;;;22.67;59.30;101719.70;2279993;77;22402;-74
2023/10/01 08:06:15;;;;;;;27.10;4.50;;;;;;;22.70;59.22;101716.62;2270704;78;22367;-74
2023/10/01 08:09:15;;;;;;;20.48;5.00;;;;;;;22.74;58.92;101705.81;2267643;77;22235;-76
2023/10/01 08:12:19;;;;;;;18.32;4.45;;;;;;;22.66;59.08;101704.03;2267066;77;50408;-74
2023/10/01 08:15:31;;;;;;;18.27;4.22;;;;;;;22.66;59.04;101707.22;2268791;77;51245;-75
2023/10/01 08:18:36;;;;;;;25.10;4.42;;;;;;;22.65;59.04;101700.16;2268644;77;51474;-75
2023/10/01 08:21:38;;;;;;;20.68;4.28;;;;;;;22.63;58.98;101703.03;2271773;77;50732;-75
2023/10/01 08:24:45;;;;;;;23.20;4.53;;;;;;;22.62;59.04;101697.32;2287337;76;51444;-75
2023/10/01 08:34:29;;;;;;;25.02;5.03;;;;;;;22.57;58.93;101711.36;2296658;76;22339;-75
2023/10/01 08:37:31;;;;;;;30.15;6.05;;;;;;;22.57;58.87;101711.36;2318976;76;50364;-75
2023/10/01 08:40:41;;;;;;;34.92;6.58;;;;;;;22.55;58.75;101716.60;2263996;76;52343;-74
2023/10/01 08:43:37;;;;;;;48.02;9.30;;;;;;;22.53;58.69;101707.85;2292803;77;22346;-75
2023/10/01 08:46:40;;;;;;;37.00;7.50;;;;;;;22.50;58.38;101709.05;2280280;78;52124;-74
2023/10/01 08:49:44;;;;;;;42.38;7.45;;;;;;;22.54;58.36;101713.08;2294282;77;50682;-75
2023/10/01 08:52:56;;;;;;;49.83;7.70;;;;;;;22.56;57.93;101706.16;2280479;77;22879;-75
2023/10/01 08:59:23;;;;;;;52.80;7.95;;;;;;;22.56;57.41;101719.64;2347020;75;22294;-73
2023/10/01 09:02:15;;;;;;;49.13;7.50;;;;;;;22.59;57.31;101715.23;2342877;75;22350;-73
2023/10/01 09:05:23;;;;;;;51.73;8.68;;;;;;;22.58;57.23;101726.53;2345493;75;22335;-74
2023/10/01 09:08:28;;;;;;;53.20;7.70;;;;;;;22.55;57.18;101723.34;2345506;75;29046;-74
2023/10/01 09:11:41;;;;;;;42.60;7.53;;;;;;;22.54;57.22;101714.42;2305147;75;22805;-75
2023/10/01 09:14:40;;;;;;;32.48;6.80;;;;;;;22.68;56.63;101716.80;2288642;77;22326;-76
2023/10/01 09:17:56;;;;;;;31.27;6.33;;;;;;;22.99;55.41;101718.04;2289686;77;51330;-75
2023/10/01 09:21:38;;;;;;;37.15;6.17;;;;;;;23.17;54.47;101704.64;2262537;77;22384;-76
2023/10/01 09:24:12;;;;;;;31.02;5.85;;;;;;;23.00;54.87;101706.73;2296393;75;22519;-76
2023/10/01 09:26:55;;;;;;;35.08;5.92;;;;;;;22.88;55.35;101718.97;2310961;76;22456;-75
2023/10/01 09:30:27;;;;;;;35.80;5.53;;;;;;;22.77;55.34;101718.41;2284307;77;22310;-74
2023/10/01 09:33:34;;;;;;;31.40;6.12;;;;;;;22.70;55.41;101713.41;2302854;77;51675;-76
2023/10/01 09:36:45;;;;;;;23.65;4.47;;;;;;;22.68;55.48;101711.92;2313957;75;23048;-76
2023/10/01 09:39:43;;;;;;;31.25;6.37;;;;;;;22.66;55.44;101716.17;2281784;77;22292;-75
2023/10/01 09:42:46;;;;;;;18.42;4.47;;;;;;;22.64;55.24;101705.24;2284134;77;51471;-76
2023/10/01 09:45:49;;;;;;;23.32;4.60;;;;;;;22.63;55.31;101711.13;2283743;77;51154;-75
2023/10/01 09:49:00;;;;;;;29.10;5.28;;;;;;;22.61;54.92;101699.70;2284117;77;51969;-76
2023/10/01 09:51:56;;;;;;;29.05;5.70;;;;;;;22.60;54.78;101692.09;2302710;77;22292;-77
2023/10/01 09:55:10;;;;;;;25.37;5.42;;;;;;;22.56;54.97;101675.97;2303237;77;50264;-76
2023/10/01 09:58:13;;;;;;;26.07;5.47;;;;;;;22.56;55.01;101677.84;2284704;77;50624;-75
2023/10/01 10:01:17;;;;;;;28.05;5.00;;;;;;;22.54;55.05;101683.41;2314120;75;50266;-77
2023/10/01 10:04:24;;;;;;;25.52;5.28;;;;;;;22.55;55.05;101681.53;2310560;75;22593;-77
2023/10/01 10:07:26;;;;;;;17.70;5.08;;;;;;;22.54;55.13;101685.27;2338783;76;51534;-76
2023/10/01 10:10:28;;;;;;;18.80;4.42;;;;;;;22.53;54.93;101674.13;2324076;76;52675;-77
2023/10/01 10:13:57;;;;;;;26.40;4.87;;;;;;;22.54;54.75;101683.41;2344625;76;50641;-76
2023/10/01 10:16:59;;;;;;;17.87;3.95;;;;;;;22.53;54.54;101691.67;2342778;75;22192;-76
2023/10/01 10:20:16;;;;;;;19.67;5.17;;;;;;;22.53;54.58;101690.31;2309694;77;52537;-75
2023/10/01 10:23:21;;;;;;;18.92;4.83;;;;;;;22.52;54.45;101689.48;2303727;77;51438;-76
2023/10/01 10:27:03;;;;;;;28.62;4.80;;;;;;;22.53;54.40;101690.31;2304188;77;22376;-76
2023/10/01 10:30:06;;;;;;;18.35;4.05;;;;;;;22.52;54.53;101692.70;2286074;77;22157;-76
2023/10/01 10:33:29;;;;;;;21.93;4.37;;;;;;;22.55;54.66;101695.86;2303304;77;49961;-76
2023/10/01 10:36:36;;;;;;;14.38;4.05;;;;;;;22.55;54.78;101700.42;2315471;76;22593;-75
2023/10/01 10:39:53;;;;;;;19.50;4.83;;;;;;;22.53;54.83;101693.88;2315832;76;51623;-74
2023/10/01 10:43:05;;;;;;;25.23;4.60;;;;;;;22.53;54.80;101695.71;2346370;75;21915;-76
2023/10/01 10:46:06;;;;;;;25.62;4.80;;;;;;;22.52;54.86;101702.14;2340814;75;22382;-76
2023/10/01 10:49:09;;;;;;;19.65;4.40;;;;;;;22.51;54.88;101689.69;2322516;76;50594;-76
2023/10/01 10:52:13;;;;;;;26.23;5.03;;;;;;;22.50;54.96;101690.69;2341999;75;23368;-76
2023/10/01 10:55:19;;;;;;;19.05;4.53;;;;;;;22.51;54.98;101685.64;2320159;76;51220;-77
2023/10/01 10:58:21;;;;;;;;;;;;;;;22.51;55.11;101685.13;2344810;75;50183;-76
2023/10/01 11:01:24;;;;;;;17.27;3.98;;;;;;;22.51;55.17;101685.64;2322370;76;51607;-76
2023/10/01 11:04:30;;;;;;;20.15;4.55;;;;;;;22.51;55.04;101693.73;2321726;76;50532;-77
2023/10/01 11:07:35;;;;;;;26.05;4.22;;;;;;;22.51;55.10;101689.17;2328697;76;22491;-76
2023/10/01 11:10:51;;;;;;;21.68;4.30;;;;;;;22.50;54.84;101691.52;2341656;75;22469;-76
2023/10/01 11:14:03;;;;;;;11.22;4.10;;;;;;;22.52;55.08;101687.30;2320738;76;22406;-76
2023/10/01 11:17:08;;;;;;;12.67;3.60;;;;;;;22.50;55.09;101681.25;2342222;76;50251;-76
2023/10/01 11:20:22;;;;;;;17.87;4.10;;;;;;;22.51;55.13;101682.95;2296776;76;52423;-76
2023/10/01 11:23:18;;;;;;;13.35;4.12;;;;;;;22.51;55.13;101681.08;2346604;75;22498;-76
2023/10/01 11:26:27;;;;;;;20.00;4.92;;;;;;;22.51;54.93;101688.34;2341867;76;50609;-76
2023/10/01 11:29:30;;;;;;;14.93;4.28;;;;;;;22.50;55.07;101673.16;2322899;76;50738;-76
2023/10/01 11:36:09;;;;;;;13.78;4.22;;;;;;;22.49;55.08;101673.68;2331978;76;23445;-77
2023/10/01 11:39:16;;;;;;;13.98;4.25;;;;;;;22.51;54.92;101658.67;2333642;76;50265;-76
2023/10/01 11:42:38;;;;;;;15.63;4.20;;;;;;;22.49;55.01;101650.75;2341679;75;22894;-76
2023/10/01 11:45:48;;;;;;;16.48;4.28;;;;;;;22.51;54.93;101658.67;2321812;76;51037;-75
2023/10/01 11:48:56;;;;;;;13.13;3.52;;;;;;;22.51;54.79;101653.28;2341244;75;22279;-75
2023/10/01 11:52:01;;;;;;;14.50;4.12;;;;;;;22.49;54.71;101656.14;2320753;76;31365;-76
2023/10/01 11:55:01;;;;;;;10.10;3.67;;;;;;;22.51;54.68;101656.81;2341554;75;22326;-76
2023/10/01 11:58:03;;;;;;;12.58;3.90;;;;;;;22.49;54.63;101663.41;2334618;75;51611;-76
2023/10/01 12:01:10;;;;;;;10.50;4.33;;;;;;;22.50;54.59;101655.62;2330284;76;50193;-75
2023/10/01 12:04:16;;;;;;;8.83;3.33;;;;;;;22.49;54.54;101655.31;2330062;76;51407;-75
2023/10/01 12:07:16;;;;;;;12.35;4.10;;;;;;;22.49;54.74;101655.31;2317334;75;22442;-76
2023/10/01 12:10:38;;;;;;;11.18;4.05;;;;;;;22.49;54.46;101664.75;2282691;76;51314;-76
2023/10/01 12:13:37;;;;;;;7.67;4.05;;;;;;;22.49;54.55;101667.45;2310820;76;22475;-76
2023/10/01 12:16:40;;;;;;;12.53;4.30;;;;;;;22.51;54.52;101666.77;2330253;76;50582;-76
2023/10/01 12:19:42;;;;;;;12.00;3.92;;;;;;;22.48;54.54;101665.27;2330346;76;51465;-76
2023/10/01 12:22:45;;;;;;;10.30;3.95;;;;;;;22.47;54.54;101654.14;2308051;76;51407;-76
2023/10/01 12:25:52;;;;;;;10.45;3.98;;;;;;;22.48;54.58;101654.97;2308093;76;50994;-76
2023/10/01 12:32:06;;;;;;;7.20;3.58;;;;;;;22.47;54.56;101657.35;2299919;76;22481;-76
2023/10/01 12:35:27;;;;;;;8.50;3.33;;;;;;;22.46;54.57;101649.78;2278769;76;51579;-78
2023/10/01 12:38:29;;;;;;;13.75;4.03;;;;;;;22.47;54.46;101642.00;2304511;76;50266;-76
2023/10/01 12:41:47;;;;;;;8.65;3.15;;;;;;;22.46;54.57;101642.20;2330465;76;50265;-77
2023/10/01 12:44:36;;;;;;;12.82;3.62;;;;;;;22.46;54.52;101639.51;2305665;76;22271;-77
2023/10/01 12:47:40;;;;;;;9.78;3.58;;;;;;;22.46;54.47;101643.03;2308458;76;51444;-75
2023/10/01 12:50:59;;;;;;;9.35;3.72;;;;;;;22.46;54.64;101648.95;2283012;76;51571;-74
2023/10/01 12:53:49;;;;;;;7.25;3.52;;;;;;;22.47;54.44;101642.00;2331698;76;22333;-76
2023/10/01 12:57:18;;;;;;;9.23;3.80;;;;;;;22.46;54.50;101637.64;2325469;75;50203;-76
2023/10/01 13:00:44;;;;;;;8.53;3.50;;;;;;;22.45;54.48;101633.77;2317838;76;22288;-76
2023/10/01 13:03:29;;;;;;;10.03;3.15;;;;;;;22.46;54.47;101631.42;2303817;75;22773;-76
2023/10/01 13:06:31;;;;;;;10.30;3.92;;;;;;;22.45;54.44;101635.95;2308193;76;50626;-76
2023/10/01 13:12:59;;;;;;;6.67;3.33;;;;;;;22.45;54.49;101633.25;2330748;76;22390;-76
2023/10/01 13:16:01;;;;;;;8.68;3.40;;;;;;;22.44;54.52;101630.24;2330659;76;50692;-76
2023/10/01 13:19:17;;;;;;;8.60;3.27;;;;;;;22.46;54.43;101621.98;2291365;76;50415;-76
2023/10/01 13:22:07;;;;;;;7.33;3.60;;;;;;;22.45;54.40;101631.91;2294370;76;22840;-77
2023/10/01 13:25:10;;;;;;;6.40;2.95;;;;;;;22.43;54.55;101625.02;2296838;76;50622;-76
2023/10/01 13:28:19;;;;;;;8.25;3.25;;;;;;;22.43;54.46;101633.97;2297107;76;50260;-77
2023/10/01 13:34:48;;;;;;;5.83;2.87;;;;;;;22.42;54.66;101618.80;2330125;76;23037;-76
2023/10/01 13:37:45;;;;;;;6.70;2.80;;;;;;;22.44;54.61;101599.75;2311834;76;22347;-75
2023/10/01 14:10:38;;;;;;;4.67;3.27;;;;;;;22.41;54.58;101609.05;2317251;76;22403;-76
2023/10/01 14:13:43;;;;;;;7.22;3.35;;;;;;;22.42;54.48;101603.13;2316489;76;51465;-77
2023/10/01 14:17:12;;;;;;;7.60;3.40;;;;;;;22.42;54.81;101595.05;2293298;76;51525;-77
2023/10/01 14:19:52;;;;;;;6.30;3.17;;;;;;;22.43;54.91;101585.92;2315050;76;23281;-77
2023/10/01 14:23:00;;;;;;;8.48;3.35;;;;;;;22.42;54.96;101576.16;2292756;76;22342;-77
2023/10/01 14:26:09;;;;;;;10.10;3.42;;;;;;;22.43;54.62;101588.61;2317569;76;22496;-76
2023/10/01 14:29:05;;;;;;;13.32;3.67;;;;;;;22.41;54.56;101582.08;2316616;76;22194;-76
2023/10/01 14:32:10;;;;;;;11.05;3.25;;;;;;;22.43;54.91;101582.73;2316338;76;51549;-75
2023/10/01 14:35:14;;;;;;;9.08;3.30;;;;;;;22.49;54.94;101574.41;2292975;76;22486;-76
2023/10/01 14:38:21;;;;;;;12.78;3.98;;;;;;;22.56;54.83;101580.22;2304438;76;51599;-75
2023/10/01 14:41:20;;;;;;;9.38;3.15;;;;;;;22.55;54.92;101574.99;2316335;76;22401;-76
2023/10/01 14:44:26;;;;;;;7.08;3.05;;;;;;;22.54;54.93;101580.91;2291926;76;50229;-75
2023/10/01 14:47:28;;;;;;;11.63;3.55;;;;;;;22.52;54.96;101572.68;2316618;76;50657;-76
2023/10/01 14:50:33;;;;;;;8.95;3.10;;;;;;;22.49;55.05;101561.75;2292192;76;51204;-76
2023/10/01 14:53:36;;;;;;;9.15;3.35;;;;;;;22.46;55.15;101566.17;2291213;76;22283;-75
2023/10/01 14:56:38;;;;;;;7.10;3.45;;;;;;;22.44;55.19;101562.82;2292717;76;50318;-76
2023/10/01 14:59:42;;;;;;;13.45;3.92;;;;;;;22.46;55.29;101557.25;2292224;76;50246;-75
2023/10/01 15:02:44;;;;;;;7.90;3.27;;;;;;;22.48;55.28;101560.09;2292382;76;22437;-75
2023/10/01 15:05:46;;;;;;;5.25;3.10;;;;;;;22.50;55.26;101559.88;2311060;76;51270;-75
2023/10/01 15:08:49;;;;;;;7.37;3.22;;;;;;;22.48;55.31;101560.09;2273952;77;51439;-75
2023/10/01 15:11:54;;;;;;;7.60;3.00;;;;;;;22.48;55.33;101562.78;2280243;78;51468;-75
2023/10/01 15:14:55;;;;;;;9.75;3.45;;;;;;;22.47;55.29;101570.53;2280201;77;22365;-75
2023/10/01 15:17:57;;;;;;;7.87;3.20;;;;;;;22.45;55.32;101568.53;2243412;78;50344;-76
2023/10/01 15:21:10;;;;;;;9.35;2.95;;;;;;;22.45;55.06;101569.05;2268157;78;50206;-76
2023/10/01 15:24:07;;;;;;;8.08;3.00;;;;;;;22.46;55.28;101581.01;2267218;78;22210;-76